createdAt,value
2023-09-07T00:00:37.401Z,88.00
2023-09-07T00:01:40.776Z,88.00
2023-09-07T00:02:43.451Z,88.00
2023-09-07T00:03:46.744Z,87.50
2023-09-07T00:04:49.195Z,87.00
2023-09-07T00:05:52.548Z,87.00
2023-09-07T00:06:54.731Z,86.17
2023-09-07T00:07:58.392Z,85.17
2023-09-07T00:09:00.686Z,83.50
2023-09-07T00:10:05.883Z,82.00
2023-09-07T00:11:08.996Z,81.17
2023-09-07T00:12:12.117Z,81.00
2023-09-07T00:13:14.312Z,80.50
2023-09-07T00:14:17.462Z,79.83
2023-09-07T00:15:22.308Z,78.83
2023-09-07T00:16:25.695Z,78.00
2023-09-07T00:17:28.077Z,78.00
2023-09-07T00:18:31.633Z,78.00
2023-09-07T00:19:37.829Z,77.50
2023-09-07T00:20:41.699Z,77.17
2023-09-07T00:21:44.180Z,78.00
2023-09-07T00:22:47.347Z,78.00
2023-09-07T00:23:49.489Z,78.00
2023-09-07T00:24:51.904Z,77.83
2023-09-07T00:25:55.212Z,77.00
2023-09-07T00:26:57.365Z,77.00
2023-09-07T00:28:00.582Z,76.50
2023-09-07T00:29:02.784Z,74.33
2023-09-07T00:30:06.964Z,72.67
2023-09-07T00:31:10.617Z,71.33
2023-09-07T00:32:13.978Z,70.33
2023-09-07T00:33:16.211Z,69.83
2023-09-07T00:34:19.419Z,68.50
2023-09-07T00:35:22.199Z,67.50
2023-09-07T00:36:24.475Z,65.50
2023-09-07T00:37:27.806Z,62.33
2023-09-07T00:38:30.357Z,59.67
2023-09-07T00:39:33.678Z,59.00
2023-09-07T00:40:36.236Z,59.00
2023-09-07T00:41:39.424Z,59.00
2023-09-07T00:42:42.574Z,59.50
2023-09-07T00:43:45.731Z,59.17
2023-09-07T00:44:49.178Z,59.17
2023-09-07T00:45:52.725Z,60.00
2023-09-07T00:46:57.981Z,60.00
2023-09-07T00:48:01.363Z,60.83
2023-09-07T00:49:05.656Z,61.83
2023-09-07T00:50:09.738Z,62.83
2023-09-07T00:51:12.130Z,64.00
2023-09-07T00:52:15.381Z,65.00
2023-09-07T00:53:19.038Z,65.00
2023-09-07T00:54:22.319Z,65.67
2023-09-07T00:55:24.690Z,66.00
2023-09-07T00:56:28.604Z,66.00
2023-09-07T00:57:31.024Z,65.67
2023-09-07T00:58:34.564Z,64.83
2023-09-07T00:59:37.595Z,64.00
2023-09-07T01:00:42.390Z,64.00
2023-09-07T01:01:44.732Z,64.00
2023-09-07T01:02:49.446Z,64.00
2023-09-07T01:03:52.014Z,64.00
2023-09-07T01:04:55.442Z,64.00
2023-09-07T01:06:02.276Z,64.17
2023-09-07T01:07:11.850Z,65.00
2023-09-07T01:08:22.786Z,65.00
2023-09-07T01:09:27.713Z,65.00
2023-09-07T01:10:29.924Z,66.00
2023-09-07T01:11:38.929Z,66.00
2023-09-07T01:12:41.224Z,66.83
2023-09-07T01:13:44.502Z,67.00
2023-09-07T01:14:47.160Z,67.83
2023-09-07T01:15:50.637Z,68.00
2023-09-07T01:16:53.245Z,68.33
2023-09-07T01:18:10.220Z,69.00
2023-09-07T01:19:21.106Z,68.00
2023-09-07T01:20:25.526Z,68.00
2023-09-07T01:21:29.251Z,68.33
2023-09-07T01:22:34.677Z,69.00
2023-09-07T01:23:37.494Z,69.00
2023-09-07T01:24:41.369Z,69.00
2023-09-07T01:25:44.182Z,69.00
2023-09-07T01:26:50.597Z,68.33
2023-09-07T01:27:52.882Z,68.00
2023-09-07T01:28:56.104Z,67.50
2023-09-07T01:29:58.961Z,67.00
2023-09-07T01:31:02.493Z,67.00
2023-09-07T01:32:05.452Z,67.00
2023-09-07T01:33:09.915Z,67.00
2023-09-07T01:34:12.837Z,67.00
2023-09-07T01:35:18.046Z,67.00
2023-09-07T01:36:20.329Z,67.00
2023-09-07T01:37:23.594Z,66.50
2023-09-07T01:38:27.589Z,67.00
2023-09-07T01:39:30.801Z,67.00
2023-09-07T01:40:33.022Z,68.17
2023-09-07T01:41:36.311Z,69.83
2023-09-07T01:42:38.746Z,72.17
2023-09-07T01:43:41.968Z,73.83
2023-09-07T01:44:44.497Z,74.00
2023-09-07T01:45:47.725Z,74.00
2023-09-07T01:46:50.030Z,74.00
2023-09-07T01:47:53.569Z,74.67
2023-09-07T01:48:55.921Z,75.00
2023-09-07T01:49:59.210Z,75.33
2023-09-07T01:51:03.483Z,76.00
2023-09-07T01:52:08.196Z,77.17
2023-09-07T01:53:10.452Z,78.83
2023-09-07T01:54:14.975Z,80.67
2023-09-07T01:55:17.348Z,81.83
2023-09-07T01:56:20.708Z,83.50
2023-09-07T01:57:23.028Z,86.67
2023-09-07T01:58:26.273Z,90.67
2023-09-07T01:59:28.431Z,95.33
2023-09-07T02:00:31.704Z,98.50
2023-09-07T02:01:37.893Z,99.50
2023-09-07T02:02:41.240Z,97.50
2023-09-07T02:03:43.527Z,97.00
2023-09-07T02:04:47.335Z,98.00
2023-09-07T02:05:49.655Z,101.00
2023-09-07T02:06:52.898Z,104.00
2023-09-07T02:07:55.236Z,104.00
2023-09-07T02:08:58.419Z,103.17
2023-09-07T02:10:04.373Z,103.67
2023-09-07T02:11:08.188Z,105.33
2023-09-07T02:12:11.818Z,107.50
2023-09-07T02:13:15.053Z,108.33
2023-09-07T02:14:17.463Z,108.00
2023-09-07T02:15:20.899Z,107.83
2023-09-07T02:16:23.072Z,108.00
2023-09-07T02:17:26.436Z,107.83
2023-09-07T02:18:28.925Z,107.00
2023-09-07T02:19:32.177Z,107.17
2023-09-07T02:20:34.757Z,108.00
2023-09-07T02:21:38.004Z,108.67
2023-09-07T02:22:40.426Z,109.00
2023-09-07T02:23:43.750Z,109.00
2023-09-07T02:24:46.087Z,108.50
2023-09-07T02:25:50.595Z,106.50
2023-09-07T02:26:52.900Z,105.17
2023-09-07T02:27:56.336Z,105.00
2023-09-07T02:28:58.605Z,105.67
2023-09-07T02:30:03.255Z,106.00
2023-09-07T02:31:06.876Z,106.00
2023-09-07T02:32:10.788Z,105.50
2023-09-07T02:33:13.024Z,103.00
2023-09-07T02:34:16.352Z,100.50
2023-09-07T02:35:18.655Z,99.00
2023-09-07T02:36:21.835Z,98.00
2023-09-07T02:37:24.166Z,96.67
2023-09-07T02:38:27.480Z,95.50
2023-09-07T02:39:29.741Z,95.00
2023-09-07T02:40:32.981Z,95.00
2023-09-07T02:41:36.605Z,95.00
2023-09-07T02:42:39.885Z,95.00
2023-09-07T02:43:42.049Z,95.00
2023-09-07T02:44:45.253Z,95.17
2023-09-07T02:45:47.556Z,96.00
2023-09-07T02:46:49.730Z,97.00
2023-09-07T02:47:53.473Z,98.33
2023-09-07T02:48:58.185Z,99.67
2023-09-07T02:50:01.382Z,102.83
2023-09-07T02:51:04.570Z,105.83
2023-09-07T02:52:08.700Z,105.67
2023-09-07T02:53:11.527Z,104.50
2023-09-07T02:54:14.672Z,103.00
2023-09-07T02:55:17.634Z,102.00
2023-09-07T02:56:20.873Z,102.67
2023-09-07T02:57:24.389Z,104.33
2023-09-07T02:58:28.677Z,106.33
2023-09-07T02:59:30.877Z,111.50
2023-09-07T03:00:34.063Z,114.83
2023-09-07T03:01:36.378Z,115.00
2023-09-07T03:02:39.864Z,114.17
2023-09-07T03:03:44.370Z,114.00
2023-09-07T03:04:47.723Z,115.00
2023-09-07T03:05:50.029Z,116.83
2023-09-07T03:06:53.214Z,118.00
2023-09-07T03:07:55.461Z,119.00
2023-09-07T03:08:58.611Z,120.50
2023-09-07T03:10:00.941Z,120.33
2023-09-07T03:11:05.522Z,120.00
2023-09-07T03:12:08.160Z,119.00
2023-09-07T03:13:12.707Z,119.00
2023-09-07T03:14:14.917Z,119.50
2023-09-07T03:15:18.301Z,120.50
2023-09-07T03:16:20.492Z,121.00
2023-09-07T03:17:23.939Z,121.17
2023-09-07T03:18:26.191Z,122.00
2023-09-07T03:19:29.447Z,121.17
2023-09-07T03:20:35.251Z,119.67
2023-09-07T03:21:38.497Z,117.33
2023-09-07T03:22:42.189Z,116.17
2023-09-07T03:23:46.116Z,114.50
2023-09-07T03:24:48.459Z,113.50
2023-09-07T03:25:50.693Z,111.17
2023-09-07T03:26:53.848Z,105.67
2023-09-07T03:27:56.095Z,103.17
2023-09-07T03:29:00.582Z,102.00
2023-09-07T03:30:02.899Z,102.00
2023-09-07T03:31:07.011Z,101.50
2023-09-07T03:32:09.878Z,101.00
2023-09-07T03:33:13.205Z,100.83
2023-09-07T03:34:15.514Z,99.50
2023-09-07T03:35:18.734Z,98.67
2023-09-07T03:36:23.249Z,98.00
2023-09-07T03:37:25.437Z,98.00
2023-09-07T03:38:28.597Z,97.50
2023-09-07T03:39:31.322Z,95.67
2023-09-07T03:40:34.461Z,94.50
2023-09-07T03:41:36.631Z,94.00
2023-09-07T03:42:40.309Z,94.00
2023-09-07T03:43:42.680Z,94.00
2023-09-07T03:44:47.192Z,94.33
2023-09-07T03:45:49.465Z,95.00
2023-09-07T03:46:52.919Z,95.00
2023-09-07T03:47:55.351Z,95.50
2023-09-07T03:48:58.514Z,96.00
2023-09-07T03:50:01.535Z,96.33
2023-09-07T03:51:07.887Z,97.00
2023-09-07T03:52:10.995Z,98.83
2023-09-07T03:53:14.201Z,104.00
2023-09-07T03:54:16.506Z,104.00
2023-09-07T03:55:21.920Z,104.67
2023-09-07T03:56:25.251Z,137.33
2023-09-07T03:57:29.522Z,143.17
2023-09-07T03:58:31.831Z,127.67
2023-09-07T03:59:35.378Z,123.50
2023-09-07T04:00:41.497Z,119.50
2023-09-07T04:01:44.813Z,114.50
2023-09-07T04:02:47.517Z,111.33
2023-09-07T04:03:51.612Z,107.33
2023-09-07T04:04:56.393Z,105.00
2023-09-07T04:05:59.814Z,104.00
2023-09-07T04:07:02.044Z,103.17
2023-09-07T04:08:05.809Z,103.00
2023-09-07T04:09:08.210Z,102.33
2023-09-07T04:10:10.663Z,101.17
2023-09-07T04:11:14.000Z,101.00
2023-09-07T04:12:16.304Z,109.33
2023-09-07T04:13:19.480Z,110.83
2023-09-07T04:14:21.738Z,107.50
2023-09-07T04:15:26.807Z,104.83
2023-09-07T04:16:30.439Z,103.67
2023-09-07T04:17:41.301Z,103.00
2023-09-07T04:18:44.255Z,103.00
2023-09-07T04:19:47.477Z,104.00
2023-09-07T04:20:49.691Z,103.83
2023-09-07T04:21:53.097Z,105.00
2023-09-07T04:22:55.236Z,106.00
2023-09-07T04:23:58.406Z,105.33
2023-09-07T04:25:00.622Z,102.83
2023-09-07T04:26:08.825Z,100.83
2023-09-07T04:27:10.963Z,98.50
2023-09-07T04:28:14.145Z,98.67
2023-09-07T04:29:16.879Z,101.33
2023-09-07T04:30:20.304Z,102.33
2023-09-07T04:31:22.914Z,105.33
2023-09-07T04:32:27.402Z,113.00
2023-09-07T04:33:31.352Z,123.67
2023-09-07T04:34:34.563Z,132.33
2023-09-07T04:35:36.772Z,131.00
2023-09-07T04:36:39.881Z,133.50
2023-09-07T04:37:43.205Z,139.83
2023-09-07T04:38:46.438Z,136.33
2023-09-07T04:39:51.882Z,135.00
2023-09-07T04:40:55.114Z,135.00
2023-09-07T04:41:57.318Z,134.50
2023-09-07T04:43:00.571Z,134.00
2023-09-07T04:44:03.287Z,134.00
2023-09-07T04:45:07.301Z,134.33
2023-09-07T04:46:09.846Z,135.00
2023-09-07T04:47:13.042Z,134.00
2023-09-07T04:48:16.575Z,133.17
2023-09-07T04:49:19.843Z,133.00
2023-09-07T04:50:22.071Z,132.00
2023-09-07T04:51:26.817Z,130.17
2023-09-07T04:52:29.012Z,129.00
2023-09-07T04:53:35.889Z,128.00
2023-09-07T04:54:38.192Z,127.33
2023-09-07T04:55:41.344Z,127.00
2023-09-07T04:56:43.592Z,125.83
2023-09-07T04:57:46.793Z,124.33
2023-09-07T04:58:49.125Z,122.17
2023-09-07T04:59:52.235Z,121.50
2023-09-07T05:00:54.601Z,124.83
2023-09-07T05:02:01.606Z,123.17
2023-09-07T05:03:04.208Z,123.83
2023-09-07T05:04:09.065Z,118.83
2023-09-07T05:05:11.548Z,112.67
2023-09-07T05:06:15.257Z,118.83
2023-09-07T05:07:17.670Z,136.00
2023-09-07T05:08:26.143Z,170.50
2023-09-07T05:09:30.759Z,152.50
2023-09-07T05:10:35.664Z,142.50
2023-09-07T05:11:37.943Z,124.67
2023-09-07T05:12:41.286Z,109.17
2023-09-07T05:13:43.487Z,103.17
2023-09-07T05:14:47.682Z,104.17
2023-09-07T05:16:10.059Z,136.50
2023-09-07T05:17:13.340Z,153.67
2023-09-07T05:18:15.543Z,155.33
2023-09-07T05:19:20.155Z,151.50
2023-09-07T05:20:22.692Z,146.50
2023-09-07T05:21:26.001Z,143.83
2023-09-07T05:22:28.542Z,133.17
2023-09-07T05:23:31.738Z,117.67
2023-09-07T05:24:33.926Z,110.00
2023-09-07T05:25:37.154Z,109.17
2023-09-07T05:26:39.421Z,111.33
2023-09-07T05:27:43.082Z,123.83
2023-09-07T05:28:45.381Z,170.33
2023-09-07T05:29:48.657Z,182.00
2023-09-07T05:30:51.663Z,184.17
2023-09-07T05:31:55.023Z,172.67
2023-09-07T05:32:57.270Z,160.17
2023-09-07T05:34:01.575Z,157.83
2023-09-07T05:35:05.789Z,157.33
2023-09-07T05:36:09.712Z,155.67
2023-09-07T05:37:11.885Z,149.50
2023-09-07T05:38:15.370Z,142.50
2023-09-07T05:39:17.601Z,134.83
2023-09-07T05:40:20.871Z,132.83
2023-09-07T05:41:23.044Z,129.50
2023-09-07T05:42:27.140Z,124.00
2023-09-07T05:43:29.584Z,116.00
2023-09-07T05:44:33.137Z,117.00
2023-09-07T05:45:37.590Z,119.17
2023-09-07T05:46:40.862Z,121.33
2023-09-07T05:47:43.177Z,124.00
2023-09-07T05:48:46.431Z,124.67
2023-09-07T05:49:48.627Z,121.83
2023-09-07T05:50:53.169Z,121.67
2023-09-07T05:51:55.478Z,122.83
2023-09-07T05:52:58.883Z,126.33
2023-09-07T05:54:01.107Z,132.33
2023-09-07T05:55:03.806Z,133.83
2023-09-07T05:56:07.256Z,134.67
2023-09-07T05:57:09.522Z,143.17
2023-09-07T05:58:12.639Z,153.17
2023-09-07T05:59:15.156Z,144.33
2023-09-07T06:00:18.755Z,129.00
2023-09-07T06:01:21.098Z,128.00
2023-09-07T06:02:24.476Z,128.17
2023-09-07T06:03:27.001Z,129.67
2023-09-07T06:04:29.487Z,132.33
2023-09-07T06:05:32.967Z,132.67
2023-09-07T06:06:36.657Z,134.33
2023-09-07T06:07:40.098Z,135.83
2023-09-07T06:08:42.455Z,140.50
2023-09-07T06:09:45.695Z,136.50
2023-09-07T06:10:48.099Z,107.33
2023-09-07T06:11:51.421Z,106.17
2023-09-07T06:12:53.671Z,110.83
2023-09-07T06:13:56.846Z,110.33
2023-09-07T06:14:59.078Z,136.67
2023-09-07T06:16:02.685Z,142.00
2023-09-07T06:17:04.955Z,143.67
2023-09-07T06:18:10.869Z,152.00
2023-09-07T06:19:15.210Z,194.83
2023-09-07T06:20:22.939Z,167.50
2023-09-07T06:21:29.310Z,168.50
2023-09-07T06:22:39.186Z,164.67
2023-09-07T06:23:54.801Z,157.50
2023-09-07T06:25:07.927Z,150.33
2023-09-07T06:26:24.437Z,116.00
2023-09-07T06:27:31.546Z,130.83
2023-09-07T06:28:35.063Z,157.00
2023-09-07T06:29:38.685Z,130.83
2023-09-07T06:30:41.152Z,158.67
2023-09-07T06:31:44.661Z,176.67
2023-09-07T06:32:48.769Z,161.33
2023-09-07T06:33:52.078Z,160.00
2023-09-07T06:34:54.362Z,140.83
2023-09-07T06:35:58.252Z,136.33
2023-09-07T06:37:00.515Z,126.00
2023-09-07T06:38:05.440Z,113.00
2023-09-07T06:39:07.767Z,121.00
2023-09-07T06:40:11.082Z,114.83
2023-09-07T06:41:14.456Z,94.83
2023-09-07T06:42:17.022Z,115.50
2023-09-07T06:43:19.400Z,119.00
2023-09-07T06:44:22.730Z,101.00
2023-09-07T06:45:25.079Z,94.83
2023-09-07T06:46:28.392Z,88.50
2023-09-07T06:47:31.671Z,81.83
2023-09-07T06:48:34.017Z,96.00
2023-09-07T06:49:38.171Z,132.17
2023-09-07T06:50:40.577Z,124.67
2023-09-07T06:51:43.851Z,111.67
2023-09-07T06:52:46.161Z,135.17
2023-09-07T06:53:57.215Z,155.50
2023-09-07T06:55:00.120Z,143.00
2023-09-07T06:56:06.856Z,104.50
2023-09-07T06:57:09.189Z,88.17
2023-09-07T06:58:12.374Z,89.00
2023-09-07T06:59:14.701Z,109.00
2023-09-07T07:00:18.234Z,99.67
2023-09-07T07:01:20.754Z,102.50
2023-09-07T07:02:27.285Z,100.50
2023-09-07T07:03:30.887Z,85.50
2023-09-07T07:04:34.396Z,140.33
2023-09-07T07:05:36.835Z,157.17
2023-09-07T07:06:40.403Z,125.67
2023-09-07T07:07:42.763Z,110.67
2023-09-07T07:08:46.058Z,111.83
2023-09-07T07:09:49.770Z,124.67
2023-09-07T07:10:53.858Z,137.67
2023-09-07T07:11:56.142Z,87.83
2023-09-07T07:12:59.276Z,80.83
2023-09-07T07:14:01.498Z,120.83
2023-09-07T07:15:05.204Z,170.83
2023-09-07T07:16:07.818Z,188.67
2023-09-07T07:17:11.223Z,183.33
2023-09-07T07:18:13.560Z,156.83
2023-09-07T07:19:16.932Z,147.67
2023-09-07T07:20:19.236Z,145.33
2023-09-07T07:21:22.465Z,147.50
2023-09-07T07:22:24.786Z,129.33
2023-09-07T07:23:28.205Z,88.50
2023-09-07T07:24:30.580Z,61.50
2023-09-07T07:25:35.417Z,52.83
2023-09-07T07:26:37.751Z,52.33
2023-09-07T07:27:41.004Z,58.50
2023-09-07T07:28:43.352Z,47.33
2023-09-07T07:29:46.999Z,45.17
2023-09-07T07:30:49.422Z,51.83
2023-09-07T07:31:52.594Z,68.33
2023-09-07T07:32:55.058Z,57.00
2023-09-07T07:33:58.407Z,33.17
2023-09-07T07:35:00.725Z,45.67
2023-09-07T07:36:04.129Z,48.50
2023-09-07T07:37:06.516Z,43.83
2023-09-07T07:38:09.954Z,52.50
2023-09-07T07:39:12.783Z,54.67
2023-09-07T07:40:16.196Z,48.67
2023-09-07T07:41:19.881Z,32.17
2023-09-07T07:42:23.109Z,38.00
2023-09-07T07:43:25.308Z,44.00
2023-09-07T07:44:28.693Z,46.00
2023-09-07T07:45:31.059Z,46.17
2023-09-07T07:46:34.349Z,42.17
2023-09-07T07:47:36.711Z,38.50
2023-09-07T07:48:40.009Z,39.17
2023-09-07T07:49:42.279Z,35.67
2023-09-07T07:50:45.530Z,22.50
2023-09-07T07:51:47.859Z,16.00
2023-09-07T07:52:51.238Z,26.33
2023-09-07T07:53:55.209Z,37.50
2023-09-07T07:54:58.654Z,50.67
2023-09-07T07:56:00.910Z,58.67
2023-09-07T07:57:09.611Z,175.33
2023-09-07T07:58:12.456Z,185.50
2023-09-07T07:59:16.037Z,128.67
2023-09-07T08:00:18.983Z,75.83
2023-09-07T08:01:22.979Z,56.33
2023-09-07T08:02:25.269Z,95.50
2023-09-07T08:03:28.721Z,100.83
2023-09-07T08:04:33.584Z,102.00
2023-09-07T08:05:40.669Z,50.67
2023-09-07T08:06:42.968Z,38.83
2023-09-07T08:07:50.088Z,44.83
2023-09-07T08:08:52.772Z,114.83
2023-09-07T08:09:56.110Z,92.17
2023-09-07T08:11:00.023Z,42.83
2023-09-07T08:12:05.162Z,71.00
2023-09-07T08:13:07.475Z,188.17
2023-09-07T08:14:09.816Z,134.33
2023-09-07T08:15:13.362Z,49.67
2023-09-07T08:16:15.700Z,29.33
2023-09-07T08:17:19.834Z,26.33
2023-09-07T08:18:22.305Z,33.33
2023-09-07T08:19:25.949Z,100.17
2023-09-07T08:20:28.505Z,80.17
2023-09-07T08:21:31.717Z,27.33
2023-09-07T08:22:36.740Z,28.83
2023-09-07T08:23:40.021Z,77.00
2023-09-07T08:24:43.603Z,89.67
2023-09-07T08:25:48.040Z,46.33
2023-09-07T08:26:52.522Z,42.33
2023-09-07T08:27:58.952Z,47.17
2023-09-07T08:29:06.497Z,33.67
2023-09-07T08:30:11.321Z,67.50
2023-09-07T08:31:15.771Z,148.83
2023-09-07T08:32:19.278Z,99.83
2023-09-07T08:33:24.210Z,41.17
2023-09-07T08:34:27.725Z,15.33
2023-09-07T08:35:31.749Z,15.33
2023-09-07T08:36:35.502Z,34.67
2023-09-07T08:37:37.707Z,36.17
2023-09-07T08:38:40.860Z,27.67
2023-09-07T08:39:43.725Z,18.00
2023-09-07T08:40:47.365Z,24.17
2023-09-07T08:42:01.282Z,28.33
2023-09-07T08:43:08.748Z,13.33
2023-09-07T08:44:11.925Z,36.83
2023-09-07T08:45:17.822Z,30.83
2023-09-07T08:46:21.769Z,36.17
2023-09-07T08:47:25.756Z,121.83
2023-09-07T08:48:29.090Z,141.33
2023-09-07T08:49:33.747Z,84.17
2023-09-07T08:50:39.176Z,74.17
2023-09-07T08:51:42.662Z,48.83
2023-09-07T08:52:46.352Z,26.17
2023-09-07T08:53:54.926Z,18.83
2023-09-07T08:54:59.689Z,29.33
2023-09-07T08:56:04.434Z,121.83
2023-09-07T08:57:07.713Z,97.50
2023-09-07T08:58:12.214Z,120.83
2023-09-07T08:59:14.725Z,217.00
2023-09-07T09:00:18.522Z,186.33
2023-09-07T09:01:22.716Z,235.00
2023-09-07T09:02:26.877Z,130.67
2023-09-07T09:03:30.598Z,128.33
2023-09-07T09:04:35.392Z,194.00
2023-09-07T09:05:40.425Z,250.00
2023-09-07T09:06:43.790Z,210.83
2023-09-07T09:07:46.091Z,143.33
2023-09-07T09:08:51.236Z,98.67
2023-09-07T09:10:07.123Z,199.83
2023-09-07T09:11:10.403Z,119.17
2023-09-07T09:12:13.584Z,46.17
2023-09-07T09:13:18.183Z,17.33
2023-09-07T09:14:21.117Z,25.00
2023-09-07T09:15:24.633Z,32.67
2023-09-07T09:16:26.953Z,64.50
2023-09-07T09:17:30.401Z,86.67
2023-09-07T09:18:33.001Z,70.67
2023-09-07T09:19:38.254Z,73.50
2023-09-07T09:20:40.683Z,46.83
2023-09-07T09:21:43.924Z,175.33
2023-09-07T09:22:46.224Z,98.33
2023-09-07T09:23:51.316Z,23.67
2023-09-07T09:24:53.582Z,8.50
2023-09-07T09:25:57.616Z,7.00
2023-09-07T09:27:00.489Z,4.00
2023-09-07T09:28:04.307Z,7.00
2023-09-07T09:29:07.931Z,37.67
2023-09-07T09:30:11.771Z,28.00
2023-09-07T09:31:15.219Z,20.50
2023-09-07T09:32:18.485Z,8.67
2023-09-07T09:33:21.095Z,20.17
2023-09-07T09:34:24.583Z,38.00
2023-09-07T09:35:27.740Z,18.33
2023-09-07T09:36:35.562Z,8.50
2023-09-07T09:37:45.839Z,10.00
2023-09-07T09:38:51.204Z,14.83
2023-09-07T09:39:54.976Z,6.83
2023-09-07T09:40:58.828Z,4.50
2023-09-07T09:42:01.369Z,10.33
2023-09-07T09:43:05.642Z,12.83
2023-09-07T09:44:10.426Z,15.33
2023-09-07T09:45:14.415Z,38.83
2023-09-07T09:46:16.812Z,148.83
2023-09-07T09:47:20.413Z,115.33
2023-09-07T09:48:23.690Z,184.17
2023-09-07T09:49:27.612Z,289.00
2023-09-07T09:50:30.350Z,189.83
2023-09-07T09:51:34.177Z,251.00
2023-09-07T09:52:37.733Z,157.67
2023-09-07T09:53:41.243Z,74.67
2023-09-07T09:54:44.058Z,125.33
2023-09-07T09:55:47.607Z,178.50
2023-09-07T09:56:52.758Z,110.67
2023-09-07T09:57:58.623Z,195.00
2023-09-07T09:59:01.920Z,396.00
2023-09-07T10:00:20.771Z,355.17
2023-09-07T10:01:24.330Z,214.83
2023-09-07T10:02:27.597Z,154.00
2023-09-07T10:03:34.678Z,48.67
2023-09-07T10:04:37.702Z,40.50
2023-09-07T10:05:41.545Z,70.33
2023-09-07T10:06:53.012Z,39.00
2023-09-07T10:08:02.860Z,82.67
2023-09-07T10:09:08.360Z,176.17
2023-09-07T10:10:13.398Z,79.17
2023-09-07T10:11:15.675Z,105.00
2023-09-07T10:12:19.104Z,193.67
2023-09-07T10:13:31.253Z,133.50
2023-09-07T10:14:41.551Z,35.17
2023-09-07T10:15:45.724Z,21.83
2023-09-07T10:16:50.967Z,27.83
2023-09-07T10:18:05.304Z,178.50
2023-09-07T10:19:16.889Z,50.00
2023-09-07T10:20:19.402Z,23.50
2023-09-07T10:21:25.617Z,24.67
2023-09-07T10:22:31.758Z,6.17
2023-09-07T10:23:40.372Z,2.33
2023-09-07T10:24:47.376Z,1.67
2023-09-07T10:25:51.849Z,3.67
2023-09-07T10:27:05.753Z,6.17
2023-09-07T10:28:20.070Z,6.00
2023-09-07T10:29:22.227Z,17.17
2023-09-07T10:30:25.970Z,86.00
2023-09-07T10:31:48.073Z,78.83
2023-09-07T10:32:54.785Z,45.00
2023-09-07T10:33:57.436Z,16.17
2023-09-07T10:35:02.010Z,5.33
2023-09-07T10:36:07.553Z,88.67
2023-09-07T10:37:13.539Z,191.00
2023-09-07T10:38:15.839Z,183.67
2023-09-07T10:39:19.925Z,71.83
2023-09-07T10:40:23.087Z,132.33
2023-09-07T10:41:26.612Z,287.00
2023-09-07T10:42:28.936Z,157.33
2023-09-07T10:43:32.678Z,46.00
2023-09-07T10:44:38.618Z,23.50
2023-09-07T10:45:41.133Z,11.50
2023-09-07T10:46:46.071Z,11.83
2023-09-07T10:47:48.772Z,19.17
2023-09-07T10:48:53.148Z,41.50
2023-09-07T10:49:55.619Z,47.67
2023-09-07T10:50:59.174Z,199.83
2023-09-07T10:52:01.508Z,361.67
2023-09-07T10:53:05.170Z,400.00
2023-09-07T10:54:15.460Z,327.17
2023-09-07T10:55:18.816Z,189.67
2023-09-07T10:56:21.198Z,143.00
2023-09-07T10:57:24.478Z,177.00
2023-09-07T10:58:30.199Z,189.33
2023-09-07T10:59:34.203Z,64.83
2023-09-07T11:00:36.863Z,69.83
2023-09-07T11:01:40.235Z,84.83
2023-09-07T11:02:44.587Z,134.83
2023-09-07T11:03:48.128Z,40.67
2023-09-07T11:04:50.313Z,21.83
2023-09-07T11:05:55.280Z,170.50
2023-09-07T11:06:58.719Z,131.67
2023-09-07T11:08:02.157Z,49.17
2023-09-07T11:09:09.417Z,50.50
2023-09-07T11:10:11.730Z,77.00
2023-09-07T11:11:15.638Z,43.33
2023-09-07T11:12:17.823Z,44.33
2023-09-07T11:13:21.167Z,57.83
2023-09-07T11:14:23.792Z,125.83
2023-09-07T11:15:27.351Z,114.83
2023-09-07T11:16:30.614Z,25.00
2023-09-07T11:17:33.844Z,6.83
2023-09-07T11:18:37.806Z,5.50
2023-09-07T11:19:41.067Z,3.17
2023-09-07T11:20:43.498Z,18.83
2023-09-07T11:21:46.744Z,47.17
2023-09-07T11:23:03.285Z,19.33
2023-09-07T11:24:10.338Z,5.83
2023-09-07T11:25:12.644Z,9.17
2023-09-07T11:26:18.218Z,6.17
2023-09-07T11:27:20.507Z,11.83
2023-09-07T11:28:26.071Z,38.33
2023-09-07T11:29:28.358Z,84.67
2023-09-07T11:30:31.669Z,331.83
2023-09-07T11:31:33.962Z,189.17
2023-09-07T11:32:38.791Z,190.67
2023-09-07T11:33:42.633Z,246.17
2023-09-07T11:34:59.054Z,188.83
2023-09-07T11:36:01.972Z,241.83
2023-09-07T11:37:05.799Z,106.83
2023-09-07T11:38:11.332Z,144.00
2023-09-07T11:39:14.840Z,197.50
2023-09-07T11:40:17.374Z,225.67
2023-09-07T11:41:20.642Z,192.00
2023-09-07T11:42:23.685Z,238.83
2023-09-07T11:43:27.022Z,267.33
2023-09-07T11:44:29.215Z,381.83
2023-09-07T11:45:33.520Z,314.50
2023-09-07T11:46:36.353Z,220.50
2023-09-07T11:47:39.614Z,278.33
2023-09-07T11:48:43.296Z,84.67
2023-09-07T11:49:46.447Z,15.17
2023-09-07T11:50:48.752Z,5.50
2023-09-07T11:51:51.898Z,2.33
2023-09-07T11:52:54.137Z,10.83
2023-09-07T11:53:57.410Z,83.83
2023-09-07T11:54:59.772Z,112.67
2023-09-07T11:56:03.283Z,141.67
2023-09-07T11:57:05.862Z,53.33
2023-09-07T11:58:09.043Z,13.50
2023-09-07T11:59:11.361Z,3.33
2023-09-07T12:00:15.965Z,10.17
2023-09-07T12:01:18.309Z,47.17
2023-09-07T12:02:22.643Z,67.17
2023-09-07T12:03:25.219Z,127.17
2023-09-07T12:04:30.227Z,279.00
2023-09-07T12:05:33.573Z,296.17
2023-09-07T12:06:37.056Z,348.83
2023-09-07T12:07:40.120Z,140.50
2023-09-07T12:08:44.670Z,29.33
2023-09-07T12:09:46.911Z,7.83
2023-09-07T12:10:50.104Z,4.17
2023-09-07T12:11:52.398Z,2.33
2023-09-07T12:12:55.691Z,3.33
2023-09-07T12:13:58.221Z,5.00
2023-09-07T12:15:01.596Z,3.17
2023-09-07T12:16:04.807Z,3.50
2023-09-07T12:17:08.436Z,8.33
2023-09-07T12:18:10.926Z,23.33
2023-09-07T12:19:14.219Z,37.33
2023-09-07T12:20:17.975Z,33.83
2023-09-07T12:21:23.389Z,44.83
2023-09-07T12:22:25.925Z,108.83
2023-09-07T12:23:30.225Z,153.67
2023-09-07T12:24:32.677Z,120.83
2023-09-07T12:25:36.040Z,76.83
2023-09-07T12:26:38.324Z,59.67
2023-09-07T12:27:53.255Z,77.17
2023-09-07T12:28:57.729Z,115.33
2023-09-07T12:29:59.874Z,155.17
2023-09-07T12:31:03.841Z,92.00
2023-09-07T12:32:06.825Z,85.83
2023-09-07T12:33:10.123Z,63.00
2023-09-07T12:34:12.433Z,47.83
2023-09-07T12:35:16.356Z,326.33
2023-09-07T12:36:22.787Z,370.00
2023-09-07T12:37:26.258Z,294.67
2023-09-07T12:38:29.705Z,295.00
2023-09-07T12:39:33.172Z,439.17
2023-09-07T12:40:36.520Z,367.00
2023-09-07T12:41:39.812Z,393.50
2023-09-07T12:42:42.646Z,407.50
2023-09-07T12:43:45.930Z,443.50
2023-09-07T12:44:48.150Z,452.67
2023-09-07T12:45:51.569Z,258.50
2023-09-07T12:46:53.795Z,80.83
2023-09-07T12:47:57.028Z,307.33
2023-09-07T12:48:59.225Z,165.83
2023-09-07T12:50:02.613Z,68.83
2023-09-07T12:51:04.836Z,254.67
2023-09-07T12:52:11.917Z,244.67
2023-09-07T12:53:14.133Z,141.67
2023-09-07T12:54:17.794Z,213.67
2023-09-07T12:55:20.161Z,266.67
2023-09-07T12:56:22.537Z,131.50
2023-09-07T12:57:25.967Z,104.17
2023-09-07T12:58:28.464Z,284.17
2023-09-07T12:59:32.137Z,266.50
2023-09-07T13:00:34.409Z,139.33
2023-09-07T13:01:37.718Z,354.67
2023-09-07T13:02:40.119Z,437.50
2023-09-07T13:03:43.493Z,375.67
2023-09-07T13:04:45.867Z,353.67
2023-09-07T13:05:49.304Z,434.17
2023-09-07T13:06:51.640Z,465.00
2023-09-07T13:07:57.430Z,449.00
2023-09-07T13:08:59.702Z,433.67
2023-09-07T13:10:05.080Z,451.00
2023-09-07T13:11:07.387Z,442.00
2023-09-07T13:12:10.986Z,411.17
2023-09-07T13:13:13.268Z,451.67
2023-09-07T13:14:16.459Z,378.50
2023-09-07T13:15:18.869Z,446.00
2023-09-07T13:16:22.106Z,480.00
2023-09-07T13:17:24.431Z,485.33
2023-09-07T13:18:27.780Z,490.50
2023-09-07T13:19:30.311Z,492.17
2023-09-07T13:20:33.667Z,483.00
2023-09-07T13:21:35.886Z,464.33
2023-09-07T13:22:40.655Z,318.67
2023-09-07T13:23:45.415Z,266.50
2023-09-07T13:24:48.667Z,376.50
2023-09-07T13:25:50.953Z,422.17
2023-09-07T13:26:53.216Z,445.83
2023-09-07T13:27:57.334Z,453.33
2023-09-07T13:29:00.864Z,428.50